Waymart, Pennsylvania
Current Conditions -  °F | °C
As of 8:54 AM on Friday 28 Nov 2014 (Local Time) from KAVP Reporting Station
Broken Clouds Broken Clouds  
Wind Chill: 17°   Ceiling: 4600
Heat Index: 27°   Visibility: 10mi
Dew Point: 19°   Wind: 10mph
Humidity: 72%   Direction: 330°NNW
Pressure: 30.18"   Gusts: NA
Location:  41.58°N, 75.41°W
Report Text: KAVP 281354Z 33009KT 10SM FEW019 BKN046 BKN055 M03/M07 A3018 RMK AO2 SNB1259E31 SLP232 P0000 T10281072
Loading
Personal Weather Stations






























Interactive Weather Map New forecast layout! Learn more

10-Day Weather Forecast

Advertisements
Track Severe Weather on mobile